sensor_id;sensor_type;location;lat;lon;timestamp;P1;durP1;ratioP1;P2;durP2;ratioP2
33152;SDS011;19509;43.862;26.176;2023-06-22T00:01:48;0.60;;;0.60;;
33152;SDS011;19509;43.862;26.176;2023-06-22T00:04:13;0.60;;;0.60;;
33152;SDS011;19509;43.862;26.176;2023-06-22T00:06:39;0.60;;;0.60;;
33152;SDS011;19509;43.862;26.176;2023-06-22T00:09:04;0.70;;;0.70;;
33152;SDS011;19509;43.862;26.176;2023-06-22T00:11:32;0.60;;;0.60;;
33152;SDS011;19509;43.862;26.176;2023-06-22T00:13:58;0.70;;;0.70;;
33152;SDS011;19509;43.862;26.176;2023-06-22T00:16:24;0.70;;;0.70;;
33152;SDS011;19509;43.862;26.176;2023-06-22T00:18:50;0.57;;;0.57;;
33152;SDS011;19509;43.862;26.176;2023-06-22T00:21:16;0.67;;;0.67;;
33152;SDS011;19509;43.862;26.176;2023-06-22T00:23:41;0.60;;;0.60;;
33152;SDS011;19509;43.862;26.176;2023-06-22T00:26:08;0.67;;;0.67;;
33152;SDS011;19509;43.862;26.176;2023-06-22T00:28:33;0.70;;;0.70;;
33152;SDS011;19509;43.862;26.176;2023-06-22T00:30:59;0.70;;;0.70;;
33152;SDS011;19509;43.862;26.176;2023-06-22T00:33:25;0.60;;;0.60;;
33152;SDS011;19509;43.862;26.176;2023-06-22T00:35:51;0.50;;;0.50;;
33152;SDS011;19509;43.862;26.176;2023-06-22T00:38:18;0.50;;;0.50;;
33152;SDS011;19509;43.862;26.176;2023-06-22T00:40:44;0.60;;;0.60;;
33152;SDS011;19509;43.862;26.176;2023-06-22T00:43:09;0.60;;;0.60;;
33152;SDS011;19509;43.862;26.176;2023-06-22T00:45:35;0.70;;;0.70;;
33152;SDS011;19509;43.862;26.176;2023-06-22T00:48:01;0.70;;;0.70;;
33152;SDS011;19509;43.862;26.176;2023-06-22T00:50:31;0.60;;;0.60;;
33152;SDS011;19509;43.862;26.176;2023-06-22T00:53:06;0.60;;;0.60;;
33152;SDS011;19509;43.862;26.176;2023-06-22T00:55:37;0.70;;;0.70;;
33152;SDS011;19509;43.862;26.176;2023-06-22T00:58:08;0.60;;;0.60;;
33152;SDS011;19509;43.862;26.176;2023-06-22T01:00:38;0.73;;;0.73;;
33152;SDS011;19509;43.862;26.176;2023-06-22T01:03:04;0.60;;;0.60;;
33152;SDS011;19509;43.862;26.176;2023-06-22T01:05:33;0.60;;;0.60;;
33152;SDS011;19509;43.862;26.176;2023-06-22T01:10:35;0.60;;;0.60;;
33152;SDS011;19509;43.862;26.176;2023-06-22T01:18:41;0.70;;;0.70;;
33152;SDS011;19509;43.862;26.176;2023-06-22T01:21:09;0.70;;;0.70;;
33152;SDS011;19509;43.862;26.176;2023-06-22T01:23:47;0.80;;;0.80;;
33152;SDS011;19509;43.862;26.176;2023-06-22T01:28:55;0.70;;;0.70;;
33152;SDS011;19509;43.862;26.176;2023-06-22T01:31:25;0.80;;;0.80;;
33152;SDS011;19509;43.862;26.176;2023-06-22T01:34:04;0.60;;;0.60;;
33152;SDS011;19509;43.862;26.176;2023-06-22T01:36:32;0.70;;;0.70;;
33152;SDS011;19509;43.862;26.176;2023-06-22T01:38:58;0.70;;;0.70;;
33152;SDS011;19509;43.862;26.176;2023-06-22T01:41:26;0.70;;;0.70;;
33152;SDS011;19509;43.862;26.176;2023-06-22T01:43:53;0.80;;;0.80;;
33152;SDS011;19509;43.862;26.176;2023-06-22T01:46:20;0.70;;;0.70;;
33152;SDS011;19509;43.862;26.176;2023-06-22T01:48:46;0.70;;;0.70;;
33152;SDS011;19509;43.862;26.176;2023-06-22T01:51:13;0.60;;;0.60;;
33152;SDS011;19509;43.862;26.176;2023-06-22T01:53:39;0.60;;;0.60;;
33152;SDS011;19509;43.862;26.176;2023-06-22T01:56:05;0.60;;;0.60;;
33152;SDS011;19509;43.862;26.176;2023-06-22T01:58:31;0.63;;;0.63;;
33152;SDS011;19509;43.862;26.176;2023-06-22T02:01:31;0.70;;;0.70;;
33152;SDS011;19509;43.862;26.176;2023-06-22T02:04:01;0.60;;;0.60;;
33152;SDS011;19509;43.862;26.176;2023-06-22T02:06:31;0.73;;;0.73;;
33152;SDS011;19509;43.862;26.176;2023-06-22T02:09:02;0.70;;;0.70;;
33152;SDS011;19509;43.862;26.176;2023-06-22T02:11:37;0.73;;;0.73;;
33152;SDS011;19509;43.862;26.176;2023-06-22T02:14:06;0.60;;;0.60;;
33152;SDS011;19509;43.862;26.176;2023-06-22T02:16:32;0.70;;;0.70;;
33152;SDS011;19509;43.862;26.176;2023-06-22T02:18:58;0.70;;;0.70;;
33152;SDS011;19509;43.862;26.176;2023-06-22T02:21:28;0.63;;;0.63;;
33152;SDS011;19509;43.862;26.176;2023-06-22T02:23:55;0.70;;;0.70;;
33152;SDS011;19509;43.862;26.176;2023-06-22T02:26:21;0.53;;;0.53;;
33152;SDS011;19509;43.862;26.176;2023-06-22T02:28:48;0.70;;;0.70;;
33152;SDS011;19509;43.862;26.176;2023-06-22T02:31:14;0.60;;;0.60;;
33152;SDS011;19509;43.862;26.176;2023-06-22T02:33:39;0.70;;;0.70;;
33152;SDS011;19509;43.862;26.176;2023-06-22T02:36:05;0.80;;;0.80;;
33152;SDS011;19509;43.862;26.176;2023-06-22T02:38:34;0.53;;;0.53;;
33152;SDS011;19509;43.862;26.176;2023-06-22T02:41:02;0.60;;;0.60;;
33152;SDS011;19509;43.862;26.176;2023-06-22T02:43:28;0.60;;;0.60;;
33152;SDS011;19509;43.862;26.176;2023-06-22T02:45:53;0.60;;;0.60;;
33152;SDS011;19509;43.862;26.176;2023-06-22T02:48:19;0.83;;;0.83;;
33152;SDS011;19509;43.862;26.176;2023-06-22T02:50:44;0.60;;;0.60;;
33152;SDS011;19509;43.862;26.176;2023-06-22T02:53:10;0.80;;;0.80;;
33152;SDS011;19509;43.862;26.176;2023-06-22T02:55:35;0.60;;;0.60;;
33152;SDS011;19509;43.862;26.176;2023-06-22T02:58:01;0.60;;;0.60;;
33152;SDS011;19509;43.862;26.176;2023-06-22T03:00:29;0.60;;;0.60;;
33152;SDS011;19509;43.862;26.176;2023-06-22T03:02:55;0.60;;;0.60;;
33152;SDS011;19509;43.862;26.176;2023-06-22T03:05:22;0.60;;;0.60;;
33152;SDS011;19509;43.862;26.176;2023-06-22T03:07:48;0.77;;;0.77;;
33152;SDS011;19509;43.862;26.176;2023-06-22T03:10:13;0.63;;;0.63;;
33152;SDS011;19509;43.862;26.176;2023-06-22T03:12:40;0.60;;;0.60;;
33152;SDS011;19509;43.862;26.176;2023-06-22T03:15:06;0.93;;;0.67;;
33152;SDS011;19509;43.862;26.176;2023-06-22T03:17:34;0.80;;;0.80;;
33152;SDS011;19509;43.862;26.176;2023-06-22T03:20:00;0.60;;;0.60;;
33152;SDS011;19509;43.862;26.176;2023-06-22T03:22:26;0.70;;;0.70;;
33152;SDS011;19509;43.862;26.176;2023-06-22T03:24:51;0.60;;;0.60;;
33152;SDS011;19509;43.862;26.176;2023-06-22T03:27:17;0.70;;;0.70;;
33152;SDS011;19509;43.862;26.176;2023-06-22T03:29:43;0.70;;;0.70;;
33152;SDS011;19509;43.862;26.176;2023-06-22T03:32:09;0.60;;;0.60;;
33152;SDS011;19509;43.862;26.176;2023-06-22T03:34:35;0.67;;;0.67;;
33152;SDS011;19509;43.862;26.176;2023-06-22T03:37:03;0.60;;;0.60;;
33152;SDS011;19509;43.862;26.176;2023-06-22T03:39:29;0.70;;;0.70;;
33152;SDS011;19509;43.862;26.176;2023-06-22T03:41:55;0.70;;;0.70;;
33152;SDS011;19509;43.862;26.176;2023-06-22T03:44:20;0.60;;;0.60;;
33152;SDS011;19509;43.862;26.176;2023-06-22T03:46:46;0.77;;;0.77;;
33152;SDS011;19509;43.862;26.176;2023-06-22T03:49:11;0.70;;;0.70;;
33152;SDS011;19509;43.862;26.176;2023-06-22T03:51:37;0.70;;;0.70;;
33152;SDS011;19509;43.862;26.176;2023-06-22T03:54:03;0.77;;;0.77;;
33152;SDS011;19509;43.862;26.176;2023-06-22T03:56:29;0.60;;;0.60;;
33152;SDS011;19509;43.862;26.176;2023-06-22T03:58:54;0.70;;;0.70;;
33152;SDS011;19509;43.862;26.176;2023-06-22T04:01:20;0.60;;;0.60;;
33152;SDS011;19509;43.862;26.176;2023-06-22T04:03:46;0.60;;;0.60;;
33152;SDS011;19509;43.862;26.176;2023-06-22T04:06:13;0.60;;;0.60;;
33152;SDS011;19509;43.862;26.176;2023-06-22T04:08:39;0.60;;;0.60;;
33152;SDS011;19509;43.862;26.176;2023-06-22T04:11:05;0.50;;;0.50;;
33152;SDS011;19509;43.862;26.176;2023-06-22T04:13:31;0.70;;;0.70;;
33152;SDS011;19509;43.862;26.176;2023-06-22T04:15:56;0.50;;;0.50;;
33152;SDS011;19509;43.862;26.176;2023-06-22T04:18:22;0.60;;;0.60;;
33152;SDS011;19509;43.862;26.176;2023-06-22T04:20:47;0.67;;;0.67;;
33152;SDS011;19509;43.862;26.176;2023-06-22T04:23:13;0.60;;;0.60;;
33152;SDS011;19509;43.862;26.176;2023-06-22T04:25:39;0.63;;;0.63;;
33152;SDS011;19509;43.862;26.176;2023-06-22T04:28:04;0.60;;;0.60;;
33152;SDS011;19509;43.862;26.176;2023-06-22T04:30:32;0.60;;;0.60;;
33152;SDS011;19509;43.862;26.176;2023-06-22T04:32:58;0.70;;;0.70;;
33152;SDS011;19509;43.862;26.176;2023-06-22T04:35:24;0.70;;;0.70;;
33152;SDS011;19509;43.862;26.176;2023-06-22T04:37:50;0.70;;;0.70;;
33152;SDS011;19509;43.862;26.176;2023-06-22T04:40:19;0.60;;;0.60;;
33152;SDS011;19509;43.862;26.176;2023-06-22T04:42:46;0.60;;;0.60;;
33152;SDS011;19509;43.862;26.176;2023-06-22T04:45:17;0.60;;;0.60;;
33152;SDS011;19509;43.862;26.176;2023-06-22T04:47:43;0.70;;;0.70;;
33152;SDS011;19509;43.862;26.176;2023-06-22T04:50:13;0.63;;;0.63;;
33152;SDS011;19509;43.862;26.176;2023-06-22T04:52:38;0.70;;;0.70;;
33152;SDS011;19509;43.862;26.176;2023-06-22T04:55:04;0.57;;;0.57;;
33152;SDS011;19509;43.862;26.176;2023-06-22T04:57:30;0.60;;;0.60;;
33152;SDS011;19509;43.862;26.176;2023-06-22T05:00:00;0.70;;;0.70;;
33152;SDS011;19509;43.862;26.176;2023-06-22T05:02:26;0.50;;;0.50;;
33152;SDS011;19509;43.862;26.176;2023-06-22T05:04:52;0.70;;;0.70;;
33152;SDS011;19509;43.862;26.176;2023-06-22T05:07:21;0.80;;;0.80;;
33152;SDS011;19509;43.862;26.176;2023-06-22T05:09:50;0.70;;;0.70;;
33152;SDS011;19509;43.862;26.176;2023-06-22T05:12:16;0.80;;;0.80;;
33152;SDS011;19509;43.862;26.176;2023-06-22T05:14:41;0.70;;;0.70;;
33152;SDS011;19509;43.862;26.176;2023-06-22T05:17:07;0.73;;;0.73;;
33152;SDS011;19509;43.862;26.176;2023-06-22T05:19:38;0.67;;;0.67;;
33152;SDS011;19509;43.862;26.176;2023-06-22T05:22:03;0.60;;;0.60;;
33152;SDS011;19509;43.862;26.176;2023-06-22T05:24:31;0.60;;;0.60;;
33152;SDS011;19509;43.862;26.176;2023-06-22T05:26:57;0.50;;;0.50;;
33152;SDS011;19509;43.862;26.176;2023-06-22T05:29:22;0.67;;;0.67;;
33152;SDS011;19509;43.862;26.176;2023-06-22T05:31:48;0.60;;;0.60;;
33152;SDS011;19509;43.862;26.176;2023-06-22T05:34:14;0.70;;;0.70;;
33152;SDS011;19509;43.862;26.176;2023-06-22T05:36:39;0.60;;;0.60;;
33152;SDS011;19509;43.862;26.176;2023-06-22T05:39:11;1.17;;;0.60;;
33152;SDS011;19509;43.862;26.176;2023-06-22T05:41:41;0.63;;;0.63;;
33152;SDS011;19509;43.862;26.176;2023-06-22T05:44:08;0.60;;;0.60;;
33152;SDS011;19509;43.862;26.176;2023-06-22T05:46:33;0.47;;;0.47;;
33152;SDS011;19509;43.862;26.176;2023-06-22T05:48:59;0.50;;;0.50;;
33152;SDS011;19509;43.862;26.176;2023-06-22T05:51:25;0.50;;;0.50;;
33152;SDS011;19509;43.862;26.176;2023-06-22T05:53:50;0.40;;;0.40;;
33152;SDS011;19509;43.862;26.176;2023-06-22T05:56:16;0.50;;;0.50;;
33152;SDS011;19509;43.862;26.176;2023-06-22T05:58:42;0.40;;;0.40;;
33152;SDS011;19509;43.862;26.176;2023-06-22T06:01:07;0.50;;;0.50;;
33152;SDS011;19509;43.862;26.176;2023-06-22T06:03:33;0.60;;;0.60;;
33152;SDS011;19509;43.862;26.176;2023-06-22T06:05:58;0.60;;;0.60;;
33152;SDS011;19509;43.862;26.176;2023-06-22T06:08:24;0.50;;;0.50;;
33152;SDS011;19509;43.862;26.176;2023-06-22T06:10:50;0.50;;;0.50;;
33152;SDS011;19509;43.862;26.176;2023-06-22T06:13:18;0.60;;;0.60;;
33152;SDS011;19509;43.862;26.176;2023-06-22T06:15:43;0.50;;;0.50;;
33152;SDS011;19509;43.862;26.176;2023-06-22T06:18:09;0.47;;;0.47;;
33152;SDS011;19509;43.862;26.176;2023-06-22T06:20:34;0.40;;;0.40;;
33152;SDS011;19509;43.862;26.176;2023-06-22T06:23:00;0.50;;;0.50;;
33152;SDS011;19509;43.862;26.176;2023-06-22T06:25:26;0.50;;;0.50;;
33152;SDS011;19509;43.862;26.176;2023-06-22T06:27:53;0.60;;;0.60;;
33152;SDS011;19509;43.862;26.176;2023-06-22T06:30:19;0.40;;;0.40;;
33152;SDS011;19509;43.862;26.176;2023-06-22T06:32:45;0.40;;;0.40;;
33152;SDS011;19509;43.862;26.176;2023-06-22T06:35:13;0.73;;;0.50;;
33152;SDS011;19509;43.862;26.176;2023-06-22T06:37:40;0.50;;;0.50;;
33152;SDS011;19509;43.862;26.176;2023-06-22T06:40:07;0.40;;;0.40;;
33152;SDS011;19509;43.862;26.176;2023-06-22T06:42:40;0.50;;;0.50;;
33152;SDS011;19509;43.862;26.176;2023-06-22T06:45:15;0.40;;;0.40;;
33152;SDS011;19509;43.862;26.176;2023-06-22T06:47:42;0.43;;;0.43;;
33152;SDS011;19509;43.862;26.176;2023-06-22T06:50:08;0.40;;;0.40;;
33152;SDS011;19509;43.862;26.176;2023-06-22T06:52:34;0.40;;;0.40;;
33152;SDS011;19509;43.862;26.176;2023-06-22T06:55:00;0.40;;;0.40;;
33152;SDS011;19509;43.862;26.176;2023-06-22T06:57:26;0.40;;;0.40;;
33152;SDS011;19509;43.862;26.176;2023-06-22T06:59:57;0.40;;;0.40;;
33152;SDS011;19509;43.862;26.176;2023-06-22T07:02:23;0.40;;;0.40;;
33152;SDS011;19509;43.862;26.176;2023-06-22T07:04:52;0.40;;;0.40;;
33152;SDS011;19509;43.862;26.176;2023-06-22T07:07:20;0.40;;;0.40;;
33152;SDS011;19509;43.862;26.176;2023-06-22T07:09:46;0.40;;;0.40;;
33152;SDS011;19509;43.862;26.176;2023-06-22T07:12:11;0.40;;;0.40;;
33152;SDS011;19509;43.862;26.176;2023-06-22T07:14:37;0.47;;;0.47;;
33152;SDS011;19509;43.862;26.176;2023-06-22T07:17:03;0.40;;;0.40;;
33152;SDS011;19509;43.862;26.176;2023-06-22T07:19:29;0.40;;;0.40;;
33152;SDS011;19509;43.862;26.176;2023-06-22T07:21:56;0.40;;;0.40;;
33152;SDS011;19509;43.862;26.176;2023-06-22T07:24:22;0.40;;;0.40;;
33152;SDS011;19509;43.862;26.176;2023-06-22T07:26:48;0.37;;;0.37;;
33152;SDS011;19509;43.862;26.176;2023-06-22T07:29:17;0.40;;;0.40;;
33152;SDS011;19509;43.862;26.176;2023-06-22T07:31:45;0.30;;;0.30;;
33152;SDS011;19509;43.862;26.176;2023-06-22T07:34:10;0.40;;;0.40;;
33152;SDS011;19509;43.862;26.176;2023-06-22T07:36:36;0.50;;;0.50;;
33152;SDS011;19509;43.862;26.176;2023-06-22T07:39:02;0.40;;;0.40;;
33152;SDS011;19509;43.862;26.176;2023-06-22T07:41:28;0.97;;;0.40;;
33152;SDS011;19509;43.862;26.176;2023-06-22T07:43:55;0.40;;;0.40;;
33152;SDS011;19509;43.862;26.176;2023-06-22T07:46:20;0.30;;;0.30;;
33152;SDS011;19509;43.862;26.176;2023-06-22T07:48:47;0.40;;;0.40;;
33152;SDS011;19509;43.862;26.176;2023-06-22T07:51:12;0.70;;;0.40;;
33152;SDS011;19509;43.862;26.176;2023-06-22T07:53:39;0.40;;;0.40;;
33152;SDS011;19509;43.862;26.176;2023-06-22T07:56:06;0.30;;;0.30;;
33152;SDS011;19509;43.862;26.176;2023-06-22T07:58:32;0.40;;;0.40;;
33152;SDS011;19509;43.862;26.176;2023-06-22T08:00:58;0.40;;;0.40;;
33152;SDS011;19509;43.862;26.176;2023-06-22T08:03:24;0.40;;;0.40;;
33152;SDS011;19509;43.862;26.176;2023-06-22T08:05:49;0.40;;;0.40;;
33152;SDS011;19509;43.862;26.176;2023-06-22T08:08:15;0.40;;;0.40;;
33152;SDS011;19509;43.862;26.176;2023-06-22T08:10:41;0.40;;;0.40;;
33152;SDS011;19509;43.862;26.176;2023-06-22T08:13:07;0.40;;;0.40;;
33152;SDS011;19509;43.862;26.176;2023-06-22T08:15:33;0.40;;;0.40;;
33152;SDS011;19509;43.862;26.176;2023-06-22T08:17:59;0.40;;;0.40;;
33152;SDS011;19509;43.862;26.176;2023-06-22T08:20:25;0.47;;;0.40;;
33152;SDS011;19509;43.862;26.176;2023-06-22T08:22:52;0.40;;;0.40;;
33152;SDS011;19509;43.862;26.176;2023-06-22T08:25:19;0.40;;;0.40;;
33152;SDS011;19509;43.862;26.176;2023-06-22T08:27:46;0.40;;;0.40;;
33152;SDS011;19509;43.862;26.176;2023-06-22T08:30:15;0.33;;;0.33;;
33152;SDS011;19509;43.862;26.176;2023-06-22T08:32:41;0.93;;;0.40;;
33152;SDS011;19509;43.862;26.176;2023-06-22T08:35:07;0.40;;;0.40;;
33152;SDS011;19509;43.862;26.176;2023-06-22T08:37:34;0.40;;;0.40;;
33152;SDS011;19509;43.862;26.176;2023-06-22T08:40:02;0.40;;;0.40;;
33152;SDS011;19509;43.862;26.176;2023-06-22T08:42:30;0.40;;;0.40;;
33152;SDS011;19509;43.862;26.176;2023-06-22T08:44:56;0.40;;;0.40;;
33152;SDS011;19509;43.862;26.176;2023-06-22T08:47:22;0.40;;;0.40;;
33152;SDS011;19509;43.862;26.176;2023-06-22T08:49:48;0.50;;;0.50;;
33152;SDS011;19509;43.862;26.176;2023-06-22T08:52:14;0.40;;;0.40;;
33152;SDS011;19509;43.862;26.176;2023-06-22T08:54:39;0.57;;;0.57;;
33152;SDS011;19509;43.862;26.176;2023-06-22T08:57:05;0.40;;;0.40;;
33152;SDS011;19509;43.862;26.176;2023-06-22T08:59:31;0.40;;;0.40;;
33152;SDS011;19509;43.862;26.176;2023-06-22T09:01:57;0.30;;;0.30;;
33152;SDS011;19509;43.862;26.176;2023-06-22T09:04:23;0.83;;;0.50;;
33152;SDS011;19509;43.862;26.176;2023-06-22T09:06:49;0.40;;;0.40;;
33152;SDS011;19509;43.862;26.176;2023-06-22T09:09:17;0.50;;;0.50;;
33152;SDS011;19509;43.862;26.176;2023-06-22T09:11:43;0.40;;;0.40;;
33152;SDS011;19509;43.862;26.176;2023-06-22T09:14:09;0.50;;;0.50;;
33152;SDS011;19509;43.862;26.176;2023-06-22T09:16:36;0.37;;;0.37;;
33152;SDS011;19509;43.862;26.176;2023-06-22T09:19:02;0.40;;;0.40;;
33152;SDS011;19509;43.862;26.176;2023-06-22T09:21:28;0.40;;;0.40;;
33152;SDS011;19509;43.862;26.176;2023-06-22T09:23:54;0.37;;;0.37;;
33152;SDS011;19509;43.862;26.176;2023-06-22T09:26:19;0.50;;;0.50;;
33152;SDS011;19509;43.862;26.176;2023-06-22T09:28:46;0.40;;;0.40;;
33152;SDS011;19509;43.862;26.176;2023-06-22T09:31:12;0.40;;;0.40;;
33152;SDS011;19509;43.862;26.176;2023-06-22T09:33:37;0.30;;;0.30;;
33152;SDS011;19509;43.862;26.176;2023-06-22T09:36:05;0.40;;;0.40;;
33152;SDS011;19509;43.862;26.176;2023-06-22T09:38:35;0.40;;;0.40;;
33152;SDS011;19509;43.862;26.176;2023-06-22T09:41:02;0.40;;;0.40;;
33152;SDS011;19509;43.862;26.176;2023-06-22T09:43:27;0.47;;;0.47;;
33152;SDS011;19509;43.862;26.176;2023-06-22T09:45:53;0.40;;;0.40;;
33152;SDS011;19509;43.862;26.176;2023-06-22T09:48:19;0.40;;;0.40;;
33152;SDS011;19509;43.862;26.176;2023-06-22T09:50:44;0.87;;;0.40;;
33152;SDS011;19509;43.862;26.176;2023-06-22T09:53:10;0.40;;;0.40;;
33152;SDS011;19509;43.862;26.176;2023-06-22T09:55:36;0.40;;;0.40;;
33152;SDS011;19509;43.862;26.176;2023-06-22T09:58:01;0.40;;;0.40;;
33152;SDS011;19509;43.862;26.176;2023-06-22T10:00:27;0.40;;;0.40;;
33152;SDS011;19509;43.862;26.176;2023-06-22T10:02:52;0.40;;;0.40;;
33152;SDS011;19509;43.862;26.176;2023-06-22T10:05:18;0.40;;;0.40;;
33152;SDS011;19509;43.862;26.176;2023-06-22T10:07:44;0.30;;;0.30;;
33152;SDS011;19509;43.862;26.176;2023-06-22T10:10:10;0.40;;;0.40;;
33152;SDS011;19509;43.862;26.176;2023-06-22T10:12:37;0.40;;;0.40;;
33152;SDS011;19509;43.862;26.176;2023-06-22T10:15:07;0.30;;;0.30;;
33152;SDS011;19509;43.862;26.176;2023-06-22T10:17:33;0.30;;;0.30;;
33152;SDS011;19509;43.862;26.176;2023-06-22T10:19:58;0.87;;;0.40;;
33152;SDS011;19509;43.862;26.176;2023-06-22T10:22:25;0.40;;;0.40;;
33152;SDS011;19509;43.862;26.176;2023-06-22T10:24:51;0.40;;;0.40;;
33152;SDS011;19509;43.862;26.176;2023-06-22T10:27:17;0.60;;;0.40;;
33152;SDS011;19509;43.862;26.176;2023-06-22T10:29:42;0.40;;;0.40;;
33152;SDS011;19509;43.862;26.176;2023-06-22T10:32:08;0.40;;;0.40;;
33152;SDS011;19509;43.862;26.176;2023-06-22T10:34:33;0.40;;;0.40;;
33152;SDS011;19509;43.862;26.176;2023-06-22T10:36:59;0.40;;;0.40;;
33152;SDS011;19509;43.862;26.176;2023-06-22T10:39:24;0.30;;;0.30;;
33152;SDS011;19509;43.862;26.176;2023-06-22T10:41:50;0.40;;;0.40;;
33152;SDS011;19509;43.862;26.176;2023-06-22T10:44:15;1.07;;;0.67;;
33152;SDS011;19509;43.862;26.176;2023-06-22T10:46:42;0.40;;;0.40;;
33152;SDS011;19509;43.862;26.176;2023-06-22T10:49:08;0.40;;;0.40;;
33152;SDS011;19509;43.862;26.176;2023-06-22T10:51:33;0.40;;;0.40;;
33152;SDS011;19509;43.862;26.176;2023-06-22T10:53:59;0.50;;;0.40;;
33152;SDS011;19509;43.862;26.176;2023-06-22T10:56:24;0.40;;;0.40;;
33152;SDS011;19509;43.862;26.176;2023-06-22T10:58:50;0.40;;;0.40;;
33152;SDS011;19509;43.862;26.176;2023-06-22T11:01:15;0.40;;;0.40;;
33152;SDS011;19509;43.862;26.176;2023-06-22T11:03:41;0.40;;;0.40;;
33152;SDS011;19509;43.862;26.176;2023-06-22T11:06:06;0.40;;;0.40;;
33152;SDS011;19509;43.862;26.176;2023-06-22T11:08:32;0.40;;;0.40;;
33152;SDS011;19509;43.862;26.176;2023-06-22T11:10:57;0.50;;;0.50;;
33152;SDS011;19509;43.862;26.176;2023-06-22T11:13:23;0.40;;;0.40;;
33152;SDS011;19509;43.862;26.176;2023-06-22T11:15:50;0.40;;;0.40;;
33152;SDS011;19509;43.862;26.176;2023-06-22T11:18:15;0.40;;;0.40;;
33152;SDS011;19509;43.862;26.176;2023-06-22T11:20:40;0.50;;;0.50;;
33152;SDS011;19509;43.862;26.176;2023-06-22T11:23:07;0.40;;;0.40;;
33152;SDS011;19509;43.862;26.176;2023-06-22T11:25:33;0.40;;;0.40;;
33152;SDS011;19509;43.862;26.176;2023-06-22T11:28:03;0.60;;;0.60;;
33152;SDS011;19509;43.862;26.176;2023-06-22T11:30:29;0.40;;;0.40;;
33152;SDS011;19509;43.862;26.176;2023-06-22T11:32:56;0.40;;;0.40;;
33152;SDS011;19509;43.862;26.176;2023-06-22T11:35:23;0.50;;;0.50;;
33152;SDS011;19509;43.862;26.176;2023-06-22T11:37:48;0.93;;;0.50;;
33152;SDS011;19509;43.862;26.176;2023-06-22T11:40:14;0.50;;;0.50;;
33152;SDS011;19509;43.862;26.176;2023-06-22T11:42:39;0.50;;;0.50;;
33152;SDS011;19509;43.862;26.176;2023-06-22T11:45:06;0.33;;;0.33;;
33152;SDS011;19509;43.862;26.176;2023-06-22T11:47:32;0.40;;;0.40;;
33152;SDS011;19509;43.862;26.176;2023-06-22T11:49:57;0.40;;;0.40;;
33152;SDS011;19509;43.862;26.176;2023-06-22T11:52:23;0.47;;;0.47;;
33152;SDS011;19509;43.862;26.176;2023-06-22T11:54:48;0.40;;;0.40;;
33152;SDS011;19509;43.862;26.176;2023-06-22T11:57:14;0.40;;;0.40;;
33152;SDS011;19509;43.862;26.176;2023-06-22T11:59:39;0.43;;;0.43;;
33152;SDS011;19509;43.862;26.176;2023-06-22T12:05:27;1.33;;;0.50;;
33152;SDS011;19509;43.862;26.176;2023-06-22T12:07:53;0.40;;;0.40;;
33152;SDS011;19509;43.862;26.176;2023-06-22T12:10:18;0.40;;;0.40;;
33152;SDS011;19509;43.862;26.176;2023-06-22T12:12:44;0.40;;;0.40;;
33152;SDS011;19509;43.862;26.176;2023-06-22T12:15:10;0.40;;;0.40;;
33152;SDS011;19509;43.862;26.176;2023-06-22T12:17:35;0.40;;;0.40;;
33152;SDS011;19509;43.862;26.176;2023-06-22T12:20:01;0.40;;;0.40;;
33152;SDS011;19509;43.862;26.176;2023-06-22T12:22:30;0.40;;;0.40;;
33152;SDS011;19509;43.862;26.176;2023-06-22T12:24:58;0.40;;;0.40;;
33152;SDS011;19509;43.862;26.176;2023-06-22T12:27:24;0.40;;;0.40;;
33152;SDS011;19509;43.862;26.176;2023-06-22T12:29:50;0.40;;;0.40;;
33152;SDS011;19509;43.862;26.176;2023-06-22T12:32:16;0.60;;;0.60;;
33152;SDS011;19509;43.862;26.176;2023-06-22T12:34:42;0.60;;;0.60;;
33152;SDS011;19509;43.862;26.176;2023-06-22T12:37:08;0.40;;;0.40;;
33152;SDS011;19509;43.862;26.176;2023-06-22T12:39:33;0.50;;;0.50;;
33152;SDS011;19509;43.862;26.176;2023-06-22T12:41:59;0.87;;;0.40;;
33152;SDS011;19509;43.862;26.176;2023-06-22T12:44:25;0.40;;;0.40;;
33152;SDS011;19509;43.862;26.176;2023-06-22T12:46:50;0.40;;;0.40;;
33152;SDS011;19509;43.862;26.176;2023-06-22T12:49:16;0.50;;;0.50;;
33152;SDS011;19509;43.862;26.176;2023-06-22T12:51:42;0.67;;;0.40;;
33152;SDS011;19509;43.862;26.176;2023-06-22T12:54:08;0.50;;;0.50;;
33152;SDS011;19509;43.862;26.176;2023-06-22T12:56:34;0.40;;;0.40;;
33152;SDS011;19509;43.862;26.176;2023-06-22T12:58:59;0.50;;;0.50;;
33152;SDS011;19509;43.862;26.176;2023-06-22T13:01:27;0.40;;;0.40;;
33152;SDS011;19509;43.862;26.176;2023-06-22T13:03:57;0.30;;;0.30;;
33152;SDS011;19509;43.862;26.176;2023-06-22T13:06:23;0.40;;;0.40;;
33152;SDS011;19509;43.862;26.176;2023-06-22T13:08:48;0.40;;;0.40;;
33152;SDS011;19509;43.862;26.176;2023-06-22T13:11:14;0.40;;;0.40;;
33152;SDS011;19509;43.862;26.176;2023-06-22T13:13:40;0.40;;;0.40;;
33152;SDS011;19509;43.862;26.176;2023-06-22T13:16:05;0.40;;;0.40;;
33152;SDS011;19509;43.862;26.176;2023-06-22T13:18:31;0.40;;;0.40;;
33152;SDS011;19509;43.862;26.176;2023-06-22T13:20:58;0.40;;;0.40;;
33152;SDS011;19509;43.862;26.176;2023-06-22T13:23:25;0.50;;;0.50;;
33152;SDS011;19509;43.862;26.176;2023-06-22T13:25:50;0.40;;;0.40;;
33152;SDS011;19509;43.862;26.176;2023-06-22T13:28:16;2.53;;;0.50;;
33152;SDS011;19509;43.862;26.176;2023-06-22T13:30:42;0.40;;;0.40;;
33152;SDS011;19509;43.862;26.176;2023-06-22T13:33:08;0.50;;;0.50;;
33152;SDS011;19509;43.862;26.176;2023-06-22T13:35:34;0.50;;;0.50;;
33152;SDS011;19509;43.862;26.176;2023-06-22T13:38:03;0.50;;;0.50;;
33152;SDS011;19509;43.862;26.176;2023-06-22T13:40:29;0.50;;;0.50;;
33152;SDS011;19509;43.862;26.176;2023-06-22T13:42:55;0.40;;;0.40;;
33152;SDS011;19509;43.862;26.176;2023-06-22T13:45:22;0.30;;;0.30;;
33152;SDS011;19509;43.862;26.176;2023-06-22T13:47:48;0.47;;;0.47;;
33152;SDS011;19509;43.862;26.176;2023-06-22T13:50:14;0.50;;;0.50;;
33152;SDS011;19509;43.862;26.176;2023-06-22T13:52:40;0.40;;;0.40;;
33152;SDS011;19509;43.862;26.176;2023-06-22T13:55:05;0.40;;;0.40;;
33152;SDS011;19509;43.862;26.176;2023-06-22T13:57:34;0.40;;;0.40;;
33152;SDS011;19509;43.862;26.176;2023-06-22T14:00:00;0.30;;;0.30;;
33152;SDS011;19509;43.862;26.176;2023-06-22T14:02:26;0.50;;;0.50;;
33152;SDS011;19509;43.862;26.176;2023-06-22T14:04:52;0.50;;;0.50;;
33152;SDS011;19509;43.862;26.176;2023-06-22T14:07:18;0.37;;;0.33;;
33152;SDS011;19509;43.862;26.176;2023-06-22T14:09:45;0.40;;;0.40;;
33152;SDS011;19509;43.862;26.176;2023-06-22T14:12:11;0.40;;;0.40;;
33152;SDS011;19509;43.862;26.176;2023-06-22T14:14:38;0.40;;;0.40;;
33152;SDS011;19509;43.862;26.176;2023-06-22T14:17:03;0.40;;;0.40;;
33152;SDS011;19509;43.862;26.176;2023-06-22T14:19:29;0.50;;;0.50;;
33152;SDS011;19509;43.862;26.176;2023-06-22T14:21:55;0.40;;;0.40;;
33152;SDS011;19509;43.862;26.176;2023-06-22T14:24:21;0.83;;;0.40;;
33152;SDS011;19509;43.862;26.176;2023-06-22T14:26:47;1.00;;;0.50;;
33152;SDS011;19509;43.862;26.176;2023-06-22T14:29:13;0.40;;;0.40;;
33152;SDS011;19509;43.862;26.176;2023-06-22T14:31:38;0.40;;;0.40;;
33152;SDS011;19509;43.862;26.176;2023-06-22T14:34:04;0.40;;;0.40;;
33152;SDS011;19509;43.862;26.176;2023-06-22T14:36:31;0.63;;;0.40;;
33152;SDS011;19509;43.862;26.176;2023-06-22T14:38:57;0.40;;;0.40;;
33152;SDS011;19509;43.862;26.176;2023-06-22T14:41:22;0.50;;;0.50;;
33152;SDS011;19509;43.862;26.176;2023-06-22T14:43:49;0.50;;;0.50;;